Time;durP1;ratioP1;P1;durP2;ratioP2;P2;SDS_P1;SDS_P2;PMS_P1;PMS_P2;Temp;Humidity;BMP_temperature;BMP_pressure;BME280_temperature;BME280_humidity;BME280_pressure;Samples;Min_cycle;Max_cycle;Signal;HPM_P1;HPM_P2
2024/01/13 00:00:44;;;;;;;159.90;150.43;;;2.20;99.90;;;;;;5078158;28;20029;-74
2024/01/13 00:03:09;;;;;;;191.07;179.83;;;2.20;99.90;;;;;;5056322;28;20045;-74
2024/01/13 00:05:35;;;;;;;160.43;151.53;;;2.20;99.90;;;;;;5077634;28;20487;-74
2024/01/13 00:08:01;;;;;;;109.27;102.80;;;2.20;99.90;;;;;;5070969;28;20036;-74
2024/01/13 00:10:27;;;;;;;86.63;82.03;;;2.20;99.90;;;;;;5071732;28;20504;-74
2024/01/13 00:12:52;;;;;;;123.77;116.97;;;2.20;99.90;;;;;;5070275;28;20056;-74
2024/01/13 00:15:19;;;;;;;118.90;112.50;;;2.20;99.90;;;;;;5074354;28;20098;-74
2024/01/13 00:17:45;;;;;;;91.00;85.75;;;2.20;99.90;;;;;;5055908;28;20040;-74
2024/01/13 00:20:10;;;;;;;86.65;81.60;;;2.20;99.90;;;;;;5054577;28;20055;-74
2024/01/13 00:22:36;;;;;;;85.75;81.25;;;2.20;99.90;;;;;;5059829;28;20065;-73
2024/01/13 00:25:06;;;;;;;104.00;97.30;;;2.20;99.90;;;;;;5052870;28;20489;-74
2024/01/13 00:27:31;;;;;;;108.18;101.95;;;2.20;99.90;;;;;;5076440;28;20078;-74
2024/01/13 00:29:57;;;;;;;104.97;98.97;;;2.20;99.90;;;;;;5079044;28;20068;-74
2024/01/13 00:32:22;;;;;;;120.10;113.30;;;2.20;99.90;;;;;;5083989;28;20044;-74
2024/01/13 00:34:48;;;;;;;98.53;92.33;;;2.20;99.90;;;;;;5084787;28;20049;-74
2024/01/13 00:37:14;;;;;;;91.00;85.47;;;2.20;99.90;;;;;;5066699;28;20498;-74
2024/01/13 00:39:39;;;;;;;103.90;97.77;;;2.20;99.90;;;;;;5062618;28;20115;-74
2024/01/13 00:42:05;;;;;;;161.80;152.53;;;2.20;99.90;;;;;;5078090;28;20043;-74
2024/01/13 00:44:31;;;;;;;94.83;89.10;;;2.20;99.90;;;;;;5086890;28;20142;-74
2024/01/13 00:46:56;;;;;;;118.93;112.07;;;2.20;99.90;;;;;;5081124;28;20063;-74
2024/01/13 00:49:22;;;;;;;116.47;109.90;;;2.20;99.90;;;;;;5092829;28;20044;-74
2024/01/13 00:51:48;;;;;;;158.27;148.73;;;2.20;99.90;;;;;;5082956;28;20040;-74
2024/01/13 00:54:14;;;;;;;151.87;142.80;;;2.20;99.90;;;;;;5085242;28;20136;-74
2024/01/13 00:56:40;;;;;;;111.53;104.77;;;2.20;99.90;;;;;;5082928;28;20294;-73
2024/01/13 00:59:05;;;;;;;106.73;100.03;;;2.20;99.90;;;;;;5065637;28;20064;-74
2024/01/13 01:01:31;;;;;;;133.60;125.50;;;2.20;99.90;;;;;;5063813;28;20040;-73
2024/01/13 01:03:57;;;;;;;112.13;104.83;;;2.20;99.90;;;;;;5082389;28;20132;-74
2024/01/13 01:06:22;;;;;;;131.83;124.13;;;2.10;99.90;;;;;;5072155;28;20028;-74
2024/01/13 01:08:48;;;;;;;95.93;89.93;;;2.20;99.90;;;;;;5073984;28;20851;-74
2024/01/13 01:11:14;;;;;;;97.00;91.20;;;2.20;99.90;;;;;;5082151;28;20044;-74
2024/01/13 01:13:40;;;;;;;82.77;77.87;;;2.10;99.90;;;;;;5066691;28;20064;-74
2024/01/13 01:16:06;;;;;;;106.57;100.53;;;2.10;99.90;;;;;;5083842;28;20405;-74
2024/01/13 01:18:32;;;;;;;132.00;124.20;;;2.10;99.90;;;;;;5065800;28;20097;-74
2024/01/13 01:20:58;;;;;;;82.15;77.53;;;2.10;99.90;;;;;;5076760;28;20036;-74
2024/01/13 01:23:24;;;;;;;98.23;92.70;;;2.10;99.90;;;;;;5065994;28;20830;-74
2024/01/13 01:25:50;;;;;;;108.68;102.93;;;2.10;99.90;;;;;;5088479;28;20581;-74
2024/01/13 01:28:16;;;;;;;115.80;109.37;;;2.10;99.90;;;;;;5082010;28;20047;-74
2024/01/13 01:30:41;;;;;;;83.53;78.57;;;2.10;99.90;;;;;;5087058;28;20066;-74
2024/01/13 01:33:07;;;;;;;120.27;112.93;;;2.10;99.90;;;;;;5088314;28;20084;-74
2024/01/13 01:35:33;;;;;;;133.60;125.93;;;2.10;99.90;;;;;;5089168;28;20043;-74
2024/01/13 01:37:58;;;;;;;95.27;90.00;;;2.10;99.90;;;;;;5089563;28;20036;-74
2024/01/13 01:40:26;;;;;;;83.10;78.00;;;2.10;99.90;;;;;;5084232;28;20048;-74
2024/01/13 01:42:52;;;;;;;153.52;143.95;;;2.10;99.90;;;;;;5086549;28;20043;-74
2024/01/13 01:45:18;;;;;;;187.07;175.17;;;2.10;99.90;;;;;;5069536;28;20032;-75
2024/01/13 01:47:45;;;;;;;137.63;128.73;;;2.10;99.90;;;;;;5072358;28;20059;-74
2024/01/13 01:50:11;;;;;;;174.70;164.38;;;2.10;99.90;;;;;;5086254;28;20040;-74
2024/01/13 01:52:38;;;;;;;177.73;166.95;;;2.10;99.90;;;;;;5066075;28;20048;-74
2024/01/13 01:55:06;;;;;;;103.32;96.75;;;2.10;99.90;;;;;;5079565;28;20055;-74
2024/01/13 01:57:35;;;;;;;148.07;139.27;;;2.10;99.90;;;;;;5064583;28;20075;-74
2024/01/13 02:00:01;;;;;;;166.77;156.93;;;2.10;99.90;;;;;;5065162;28;20126;-74
2024/01/13 02:02:27;;;;;;;106.43;99.78;;;2.10;99.90;;;;;;5084630;28;20398;-74
2024/01/13 02:04:54;;;;;;;73.20;68.63;;;2.10;99.90;;;;;;5081872;28;20031;-74
2024/01/13 02:07:20;;;;;;;154.98;145.65;;;2.10;99.90;;;;;;5075728;28;20491;-74
2024/01/13 02:09:47;;;;;;;123.22;115.80;;;2.00;99.90;;;;;;5070137;28;20118;-74
2024/01/13 02:12:12;;;;;;;88.38;83.18;;;2.10;99.90;;;;;;5078958;28;20062;-74
2024/01/13 02:14:38;;;;;;;117.20;110.47;;;2.00;99.90;;;;;;5085832;28;20086;-75
2024/01/13 02:17:04;;;;;;;80.27;75.70;;;2.00;99.90;;;;;;5081112;28;20655;-75
2024/01/13 02:19:35;;;;;;;85.28;80.32;;;2.00;99.90;;;;;;5079127;28;20131;-74
2024/01/13 02:22:00;;;;;;;79.40;74.97;;;2.00;99.90;;;;;;5082860;28;20028;-74
2024/01/13 02:24:26;;;;;;;80.20;75.30;;;2.10;99.90;;;;;;5083605;28;20119;-74
2024/01/13 02:26:52;;;;;;;101.17;95.17;;;2.00;99.90;;;;;;5075444;28;20032;-74
2024/01/13 02:29:17;;;;;;;85.67;80.77;;;2.00;99.90;;;;;;5067798;28;20497;-74
2024/01/13 02:31:43;;;;;;;137.43;129.17;;;2.00;99.90;;;;;;5079516;28;20032;-74
2024/01/13 02:34:09;;;;;;;105.77;99.93;;;2.10;99.90;;;;;;5066060;28;20055;-74
2024/01/13 02:36:34;;;;;;;145.07;136.70;;;2.10;99.90;;;;;;5084075;28;20049;-74
2024/01/13 02:39:00;;;;;;;135.07;126.53;;;2.10;99.90;;;;;;5085675;28;20512;-74
2024/01/13 02:41:26;;;;;;;90.90;85.83;;;2.10;99.90;;;;;;5078095;28;20033;-74
2024/01/13 02:43:52;;;;;;;83.43;78.63;;;2.10;99.90;;;;;;5080091;28;20497;-74
2024/01/13 02:46:17;;;;;;;100.83;94.43;;;2.10;99.90;;;;;;5078839;28;20071;-74
2024/01/13 02:48:46;;;;;;;84.83;79.47;;;2.20;99.90;;;;;;5058832;28;20044;-74
2024/01/13 02:51:15;;;;;;;139.10;130.68;;;2.10;99.90;;;;;;5078799;28;20499;-75
2024/01/13 02:53:41;;;;;;;127.57;120.07;;;2.10;99.90;;;;;;5065304;28;20072;-75
2024/01/13 02:56:07;;;;;;;89.97;84.60;;;2.20;99.90;;;;;;5080457;28;20067;-74
2024/01/13 02:58:33;;;;;;;101.47;95.65;;;2.10;99.90;;;;;;5067601;28;20043;-74
2024/01/13 03:00:58;;;;;;;88.37;82.30;;;2.10;99.90;;;;;;5080834;28;20040;-74
2024/01/13 03:03:24;;;;;;;91.37;85.97;;;2.10;99.90;;;;;;5072556;28;20497;-75
2024/01/13 03:05:50;;;;;;;125.30;118.10;;;2.10;99.90;;;;;;5079046;28;20502;-74
2024/01/13 03:08:15;;;;;;;92.70;86.83;;;2.10;99.90;;;;;;5059545;28;20097;-74
2024/01/13 03:10:41;;;;;;;98.10;92.10;;;2.10;99.90;;;;;;5079091;28;20074;-74
2024/01/13 03:13:07;;;;;;;112.13;105.57;;;2.10;99.90;;;;;;5081072;28;20086;-74
2024/01/13 03:15:33;;;;;;;122.00;114.83;;;2.10;99.90;;;;;;5067712;28;20048;-74
2024/01/13 03:17:58;;;;;;;121.77;114.67;;;2.10;99.90;;;;;;5081325;28;20036;-74
2024/01/13 03:20:24;;;;;;;97.60;91.70;;;2.10;99.90;;;;;;5082209;28;20093;-74
2024/01/13 03:22:50;;;;;;;89.63;83.67;;;2.10;99.90;;;;;;5087152;28;20036;-74
2024/01/13 03:25:16;;;;;;;94.63;89.17;;;2.10;99.90;;;;;;5061668;28;20040;-74
2024/01/13 03:27:41;;;;;;;77.97;73.15;;;2.10;99.90;;;;;;5072699;28;20051;-75
2024/01/13 03:30:08;;;;;;;98.53;93.00;;;2.10;99.90;;;;;;5062244;28;20115;-74
2024/01/13 03:32:33;;;;;;;118.90;112.03;;;2.10;99.90;;;;;;5077724;28;20156;-74
2024/01/13 03:34:59;;;;;;;96.23;89.87;;;2.10;99.90;;;;;;5072195;28;20076;-74
2024/01/13 03:37:24;;;;;;;107.13;100.77;;;2.10;99.90;;;;;;5085277;28;20382;-74
2024/01/13 03:39:50;;;;;;;110.23;103.67;;;2.10;99.90;;;;;;5081058;28;20084;-74
2024/01/13 03:42:16;;;;;;;82.27;77.07;;;2.10;99.90;;;;;;5061657;28;20161;-74
2024/01/13 03:44:42;;;;;;;115.63;109.03;;;2.20;99.90;;;;;;5081399;28;20059;-74
2024/01/13 03:47:07;;;;;;;94.33;88.53;;;2.10;99.90;;;;;;5085975;28;20495;-74
2024/01/13 03:49:33;;;;;;;113.37;106.93;;;2.10;99.90;;;;;;5081530;28;20036;-74
2024/01/13 03:51:59;;;;;;;110.57;104.27;;;2.20;99.90;;;;;;5068897;28;20145;-74
2024/01/13 03:54:24;;;;;;;100.53;94.77;;;2.20;99.90;;;;;;5058685;28;20067;-75
2024/01/13 03:56:51;;;;;;;120.97;113.47;;;2.20;99.90;;;;;;5058343;28;20433;-74
2024/01/13 03:59:17;;;;;;;168.70;158.93;;;2.20;99.90;;;;;;5076855;28;20048;-74
2024/01/13 04:01:43;;;;;;;181.40;170.57;;;2.20;99.90;;;;;;5075769;28;20040;-74
2024/01/13 04:04:09;;;;;;;172.57;162.47;;;2.20;99.90;;;;;;5069460;28;20028;-74
2024/01/13 04:06:41;;;;;;;131.15;123.25;;;2.20;99.90;;;;;;5070981;28;20072;-74
2024/01/13 04:09:08;;;;;;;103.85;97.75;;;2.20;99.90;;;;;;5083360;28;20059;-74
2024/01/13 04:11:34;;;;;;;106.75;100.28;;;2.20;99.90;;;;;;5085262;28;20040;-74
2024/01/13 04:14:00;;;;;;;165.32;155.88;;;2.20;99.90;;;;;;5084994;28;20112;-74
2024/01/13 04:16:25;;;;;;;132.33;124.50;;;2.20;99.90;;;;;;5084396;28;20519;-74
2024/01/13 04:18:51;;;;;;;159.57;150.27;;;2.20;99.90;;;;;;5065897;28;20036;-74
2024/01/13 04:21:17;;;;;;;199.90;187.70;;;2.30;99.90;;;;;;5085666;28;20043;-74
2024/01/13 04:23:43;;;;;;;131.07;123.57;;;2.30;99.90;;;;;;5090691;28;20375;-74
2024/01/13 04:26:08;;;;;;;79.20;74.57;;;2.30;99.90;;;;;;5070235;28;20906;-73
2024/01/13 04:28:34;;;;;;;214.73;202.43;;;2.30;99.90;;;;;;5076741;28;20133;-74
2024/01/13 04:31:00;;;;;;;167.43;157.57;;;2.30;99.90;;;;;;5090492;28;20409;-74
2024/01/13 04:33:26;;;;;;;253.97;237.83;;;2.20;99.90;;;;;;5084862;28;20570;-74
2024/01/13 04:35:51;;;;;;;179.93;168.70;;;2.20;99.90;;;;;;5070033;28;20485;-74
2024/01/13 04:38:18;;;;;;;133.47;125.70;;;2.20;99.90;;;;;;5088883;28;20104;-74
2024/01/13 04:40:47;;;;;;;84.82;80.18;;;2.10;99.90;;;;;;5087697;28;20025;-74
2024/01/13 04:43:13;;;;;;;87.35;82.65;;;2.10;99.90;;;;;;5067626;28;20032;-74
2024/01/13 04:45:39;;;;;;;92.78;87.65;;;2.00;99.90;;;;;;5065203;28;20032;-74
2024/01/13 04:48:05;;;;;;;73.83;70.17;;;1.90;99.90;;;;;;5061335;28;20405;-74
2024/01/13 04:50:30;;;;;;;75.07;71.20;;;1.90;99.90;;;;;;5067446;28;20036;-74
2024/01/13 04:52:56;;;;;;;75.33;71.67;;;1.80;99.90;;;;;;5080835;28;20097;-74
2024/01/13 04:55:22;;;;;;;67.37;63.67;;;1.80;99.90;;;;;;5066362;28;20036;-74
2024/01/13 04:57:47;;;;;;;151.57;143.47;;;1.80;99.90;;;;;;5073179;28;20044;-74
2024/01/13 05:00:14;;;;;;;107.23;101.67;;;1.80;99.90;;;;;;5073703;28;20083;-74
2024/01/13 05:02:40;;;;;;;99.97;94.82;;;1.80;99.90;;;;;;5059364;28;20070;-74
2024/01/13 05:05:05;;;;;;;127.80;120.93;;;1.80;99.90;;;;;;5074958;28;20056;-74
2024/01/13 05:07:31;;;;;;;123.63;116.83;;;1.90;99.90;;;;;;5066359;28;20469;-74
2024/01/13 05:09:57;;;;;;;98.27;93.10;;;1.90;99.90;;;;;;5065926;28;20069;-74
2024/01/13 05:12:22;;;;;;;138.40;130.90;;;1.90;99.90;;;;;;5088342;28;20047;-74
2024/01/13 05:14:48;;;;;;;167.37;157.50;;;2.00;99.90;;;;;;5087101;28;20578;-74
2024/01/13 05:17:14;;;;;;;148.60;140.60;;;2.00;99.90;;;;;;5066096;28;20153;-74
2024/01/13 05:19:40;;;;;;;236.73;222.33;;;2.10;99.90;;;;;;5066451;28;20036;-74
2024/01/13 05:22:06;;;;;;;99.97;94.77;;;2.10;99.90;;;;;;5072235;28;20474;-74
2024/01/13 05:24:31;;;;;;;200.10;188.80;;;2.10;99.90;;;;;;5088912;28;20040;-74
2024/01/13 05:26:57;;;;;;;152.17;143.20;;;2.10;99.90;;;;;;5061620;28;20035;-74
2024/01/13 05:29:23;;;;;;;188.53;176.80;;;2.10;99.90;;;;;;5078797;28;20069;-74
2024/01/13 05:31:48;;;;;;;183.03;172.30;;;2.10;99.90;;;;;;5067552;28;20040;-74
2024/01/13 05:34:14;;;;;;;192.13;178.83;;;2.10;99.90;;;;;;5074447;28;20127;-74
2024/01/13 05:36:40;;;;;;;144.90;136.83;;;2.10;99.90;;;;;;5057851;28;20469;-74
2024/01/13 05:39:05;;;;;;;197.07;185.87;;;2.10;99.90;;;;;;5061282;28;20039;-74
2024/01/13 05:41:31;;;;;;;196.30;185.00;;;2.10;99.90;;;;;;5085373;28;20036;-73
2024/01/13 05:43:57;;;;;;;165.43;156.33;;;2.20;99.90;;;;;;5065641;28;20101;-74
2024/01/13 05:46:22;;;;;;;196.77;185.13;;;2.30;99.90;;;;;;5064043;28;20040;-74
2024/01/13 05:48:48;;;;;;;195.80;184.87;;;2.30;99.90;;;;;;5062445;28;20411;-74
2024/01/13 05:51:14;;;;;;;202.27;190.83;;;2.30;99.90;;;;;;5078511;28;20044;-74
2024/01/13 05:53:39;;;;;;;129.87;122.77;;;2.30;99.90;;;;;;5081574;28;20040;-74
2024/01/13 05:56:06;;;;;;;149.47;141.43;;;2.30;99.90;;;;;;5077731;28;20508;-75
2024/01/13 05:58:32;;;;;;;236.48;222.45;;;2.20;99.90;;;;;;5070579;28;20040;-74
2024/01/13 06:00:58;;;;;;;170.02;160.80;;;2.20;99.90;;;;;;5058304;28;20040;-74
2024/01/13 06:03:25;;;;;;;175.98;166.13;;;2.20;99.90;;;;;;5082076;28;20051;-74
2024/01/13 06:05:51;;;;;;;292.83;273.77;;;2.20;99.90;;;;;;5087777;28;20093;-74
2024/01/13 06:08:17;;;;;;;142.80;135.15;;;2.20;99.90;;;;;;5086066;28;20179;-74
2024/01/13 06:10:43;;;;;;;164.37;155.47;;;2.20;99.90;;;;;;5066690;28;20127;-74
2024/01/13 06:13:09;;;;;;;122.23;115.50;;;2.20;99.90;;;;;;5066037;28;20517;-74
2024/01/13 06:15:34;;;;;;;147.17;139.07;;;2.20;99.90;;;;;;5088354;28;20170;-74
2024/01/13 06:18:00;;;;;;;198.30;186.90;;;2.20;99.90;;;;;;5063526;28;20048;-74
2024/01/13 06:20:26;;;;;;;114.80;108.67;;;2.20;99.90;;;;;;5087333;28;20123;-74
2024/01/13 06:22:51;;;;;;;157.97;149.50;;;2.20;99.90;;;;;;5072086;28;20432;-74
2024/01/13 06:25:17;;;;;;;125.67;118.97;;;2.20;99.90;;;;;;5088056;28;20081;-74
2024/01/13 06:27:43;;;;;;;101.20;96.07;;;2.20;99.90;;;;;;5086063;28;20044;-74
2024/01/13 06:30:10;;;;;;;109.53;104.00;;;2.20;99.90;;;;;;5075813;28;20048;-73
2024/01/13 06:32:36;;;;;;;131.80;124.68;;;2.20;99.90;;;;;;5071043;28;20040;-74
2024/01/13 06:35:02;;;;;;;133.43;126.50;;;2.30;99.90;;;;;;5077853;28;20078;-74
2024/01/13 06:37:29;;;;;;;155.53;147.20;;;2.30;99.90;;;;;;5070900;28;20083;-74
2024/01/13 06:39:54;;;;;;;124.38;117.93;;;2.30;99.90;;;;;;5087906;28;20044;-74
2024/01/13 06:42:20;;;;;;;180.57;170.83;;;2.30;99.90;;;;;;5062844;28;20040;-74
2024/01/13 06:44:46;;;;;;;163.63;154.53;;;2.30;99.90;;;;;;5078255;28;20490;-74
2024/01/13 06:47:11;;;;;;;186.33;175.97;;;2.30;99.90;;;;;;5080727;28;20043;-74
2024/01/13 06:49:37;;;;;;;172.83;162.40;;;2.30;99.90;;;;;;5086681;28;20051;-74
2024/01/13 06:52:03;;;;;;;145.83;137.57;;;2.30;99.90;;;;;;5084317;28;20035;-74
2024/01/13 06:54:29;;;;;;;152.18;143.73;;;2.30;99.90;;;;;;5059214;28;20044;-74
2024/01/13 06:56:55;;;;;;;194.50;183.23;;;2.40;99.90;;;;;;5083800;28;20040;-74
2024/01/13 06:59:20;;;;;;;210.33;197.83;;;2.40;99.90;;;;;;5086461;28;20089;-74
2024/01/13 07:01:49;;;;;;;183.73;172.87;;;2.40;99.90;;;;;;5073445;28;20377;-74
2024/01/13 07:04:18;;;;;;;132.18;124.20;;;2.40;99.90;;;;;;5056130;28;20046;-74
2024/01/13 07:06:44;;;;;;;121.05;113.47;;;2.40;99.90;;;;;;5086801;28;20067;-74
2024/01/13 07:09:09;;;;;;;133.90;125.63;;;2.40;99.90;;;;;;5090168;28;20124;-73
2024/01/13 07:11:35;;;;;;;164.57;154.37;;;2.40;99.90;;;;;;5073802;28;20055;-74
2024/01/13 07:14:01;;;;;;;156.73;146.77;;;2.40;99.90;;;;;;5076325;28;20056;-74
2024/01/13 07:16:28;;;;;;;208.87;195.57;;;2.40;99.90;;;;;;5062667;28;20040;-74
2024/01/13 07:18:53;;;;;;;159.15;148.90;;;2.40;99.90;;;;;;5082903;28;20036;-74
2024/01/13 07:21:19;;;;;;;147.50;137.73;;;2.40;99.90;;;;;;5076303;28;20058;-75
2024/01/13 07:23:45;;;;;;;173.53;162.10;;;2.40;99.90;;;;;;5075183;28;20494;-74
2024/01/13 07:26:11;;;;;;;224.53;209.73;;;2.40;99.90;;;;;;5077663;28;20694;-74
2024/01/13 07:28:37;;;;;;;165.30;152.63;;;2.40;99.90;;;;;;5058394;28;20060;-74
2024/01/13 07:31:02;;;;;;;155.17;143.50;;;2.50;99.90;;;;;;5078550;28;20485;-73
2024/01/13 07:33:28;;;;;;;225.93;209.87;;;2.50;99.90;;;;;;5072187;28;20370;-73
2024/01/13 07:35:54;;;;;;;315.63;290.40;;;2.50;99.90;;;;;;5068840;28;20172;-73
2024/01/13 07:38:20;;;;;;;131.30;120.73;;;2.50;99.90;;;;;;5061418;28;20079;-73
2024/01/13 07:40:46;;;;;;;161.90;149.57;;;2.50;99.90;;;;;;5068673;28;20383;-74
2024/01/13 07:43:12;;;;;;;162.13;150.05;;;2.50;99.90;;;;;;5066528;28;20039;-74
2024/01/13 07:45:38;;;;;;;236.02;219.18;;;2.50;99.90;;;;;;5079798;28;20046;-73
2024/01/13 07:48:04;;;;;;;146.57;135.33;;;2.50;99.90;;;;;;5059439;28;20500;-73
2024/01/13 07:50:30;;;;;;;254.83;234.73;;;2.50;99.90;;;;;;5057624;28;20045;-73
2024/01/13 07:52:55;;;;;;;168.53;155.70;;;2.60;99.90;;;;;;5061059;28;20641;-74
2024/01/13 07:55:21;;;;;;;272.97;251.17;;;2.60;99.90;;;;;;5074858;28;20036;-74
2024/01/13 07:57:47;;;;;;;224.40;208.00;;;2.50;99.90;;;;;;5085534;28;20384;-74
2024/01/13 08:00:13;;;;;;;177.70;164.00;;;2.50;99.90;;;;;;5069691;28;20543;-75
2024/01/13 08:02:39;;;;;;;170.00;157.05;;;2.50;99.90;;;;;;5075812;28;20048;-74
2024/01/13 08:05:05;;;;;;;169.73;155.70;;;2.60;99.90;;;;;;5061730;28;20043;-74
2024/01/13 08:07:31;;;;;;;233.75;215.88;;;2.60;99.90;;;;;;5061972;28;20036;-75
2024/01/13 08:09:56;;;;;;;183.83;169.50;;;2.60;99.90;;;;;;5083296;28;20035;-74
2024/01/13 08:12:22;;;;;;;160.23;147.37;;;2.50;99.90;;;;;;5084184;28;20051;-75
2024/01/13 08:14:48;;;;;;;163.70;150.47;;;2.60;99.90;;;;;;5063720;28;20451;-74
2024/01/13 08:17:14;;;;;;;192.77;177.23;;;2.60;99.90;;;;;;5080427;28;20043;-74
2024/01/13 08:19:40;;;;;;;122.22;111.18;;;2.60;99.90;;;;;;5063674;28;20419;-74
2024/01/13 08:22:06;;;;;;;149.63;136.20;;;2.60;99.90;;;;;;5078175;28;20040;-74
2024/01/13 08:24:32;;;;;;;237.68;219.52;;;2.50;99.90;;;;;;5068074;28;20032;-74
2024/01/13 08:26:57;;;;;;;179.80;165.03;;;2.50;99.90;;;;;;5078683;28;20553;-74
2024/01/13 08:29:23;;;;;;;196.03;180.77;;;2.50;99.90;;;;;;5087028;28;20379;-74
2024/01/13 08:31:50;;;;;;;203.67;186.60;;;2.50;99.90;;;;;;5087219;28;20048;-75
2024/01/13 08:34:16;;;;;;;128.82;117.25;;;2.50;99.90;;;;;;5090354;28;20044;-74
2024/01/13 08:36:43;;;;;;;168.77;154.85;;;2.50;99.90;;;;;;5088641;28;20048;-74
2024/01/13 08:39:09;;;;;;;224.45;206.70;;;2.50;99.90;;;;;;5090019;28;20093;-75
2024/01/13 08:41:35;;;;;;;209.85;192.77;;;2.40;99.90;;;;;;5082104;28;20039;-74
2024/01/13 08:44:02;;;;;;;160.93;147.37;;;2.40;99.90;;;;;;5079875;28;20454;-74
2024/01/13 08:46:27;;;;;;;177.52;162.50;;;2.40;99.90;;;;;;5084333;28;20071;-74
2024/01/13 08:48:53;;;;;;;161.83;147.90;;;2.40;99.90;;;;;;5083983;28;20075;-74
2024/01/13 08:51:19;;;;;;;156.93;143.30;;;2.40;99.90;;;;;;5090524;28;20054;-74
2024/01/13 08:53:45;;;;;;;153.00;139.60;;;2.50;99.90;;;;;;5061336;28;20040;-74
2024/01/13 08:56:11;;;;;;;196.38;180.23;;;2.50;99.90;;;;;;5083045;28;20089;-75
2024/01/13 08:58:38;;;;;;;205.10;188.57;;;2.50;99.90;;;;;;5082449;28;20031;-75
2024/01/13 09:01:04;;;;;;;171.80;157.25;;;2.60;99.90;;;;;;5090390;28;20495;-74
2024/01/13 09:03:30;;;;;;;187.48;172.52;;;2.50;99.90;;;;;;5061149;28;20044;-74
2024/01/13 09:05:56;;;;;;;175.48;160.85;;;2.60;99.90;;;;;;5084194;28;20047;-74
2024/01/13 09:08:23;;;;;;;142.65;129.60;;;2.60;99.90;;;;;;5086829;28;20075;-74
2024/01/13 09:10:48;;;;;;;195.57;179.77;;;2.60;99.90;;;;;;5074476;28;20044;-75
2024/01/13 09:13:14;;;;;;;171.47;157.47;;;2.60;99.90;;;;;;5078561;28;20398;-75
2024/01/13 09:15:40;;;;;;;174.87;161.30;;;2.60;99.90;;;;;;5091453;28;20044;-74
2024/01/13 09:18:08;;;;;;;182.70;167.90;;;2.60;99.90;;;;;;5084485;28;20559;-74
2024/01/13 09:20:33;;;;;;;141.98;129.80;;;2.60;99.90;;;;;;5085620;28;20070;-74
2024/01/13 09:22:59;;;;;;;174.23;160.03;;;2.60;99.90;;;;;;5073800;28;20067;-74
2024/01/13 09:25:25;;;;;;;160.70;147.90;;;2.60;99.90;;;;;;5077688;28;20078;-75
2024/01/13 09:27:53;;;;;;;182.67;168.73;;;2.60;99.90;;;;;;5084510;28;20044;-75
2024/01/13 09:30:19;;;;;;;249.10;230.30;;;2.70;99.90;;;;;;5084430;28;20041;-75
2024/01/13 09:32:45;;;;;;;184.00;169.60;;;2.70;99.90;;;;;;5085275;28;20056;-75
2024/01/13 09:35:11;;;;;;;140.50;128.90;;;2.70;99.90;;;;;;5075442;28;20615;-75
2024/01/13 09:37:37;;;;;;;146.90;135.13;;;2.70;99.90;;;;;;5061219;28;20040;-75
2024/01/13 09:40:04;;;;;;;248.88;230.73;;;2.70;99.90;;;;;;5079978;28;20114;-75
2024/01/13 09:42:43;;;;;;;182.45;167.55;;;2.70;99.90;;;;;;5062722;28;20040;-75
2024/01/13 09:45:10;;;;;;;194.98;180.32;;;2.70;99.90;;;;;;5079852;28;20127;-75
2024/01/13 09:47:36;;;;;;;214.80;197.95;;;2.80;99.90;;;;;;5073848;28;20490;-75
2024/01/13 09:50:04;;;;;;;177.27;164.25;;;2.80;99.90;;;;;;5085428;28;20757;-75
2024/01/13 09:52:30;;;;;;;139.32;128.68;;;2.90;99.90;;;;;;5065304;28;21937;-75
2024/01/13 09:55:00;;;;;;;178.23;164.85;;;2.90;99.90;;;;;;5085542;28;20123;-75
2024/01/13 09:57:27;;;;;;;214.15;198.25;;;2.90;99.90;;;;;;5082155;28;20041;-75
2024/01/13 09:59:53;;;;;;;302.17;280.70;;;3.00;99.90;;;;;;5065774;28;20036;-75
2024/01/13 10:02:18;;;;;;;299.65;276.48;;;3.00;99.90;;;;;;5060214;28;20408;-75
2024/01/13 10:04:44;;;;;;;162.83;150.40;;;3.00;99.90;;;;;;5080634;28;20101;-75
2024/01/13 10:07:10;;;;;;;177.27;164.63;;;3.00;99.90;;;;;;5072672;28;20447;-75
2024/01/13 10:09:38;;;;;;;175.73;162.57;;;3.00;99.90;;;;;;5074843;28;20054;-75
2024/01/13 10:12:08;;;;;;;189.00;175.73;;;3.00;99.90;;;;;;5071876;28;20055;-75
2024/01/13 10:14:36;;;;;;;147.55;136.73;;;3.10;99.90;;;;;;5075586;28;20127;-75
2024/01/13 10:17:05;;;;;;;221.73;206.60;;;3.10;99.90;;;;;;5073069;28;20048;-75
2024/01/13 10:19:38;;;;;;;181.65;168.73;;;3.10;99.90;;;;;;5054919;28;20490;-75
2024/01/13 10:22:05;;;;;;;199.88;185.50;;;3.10;99.90;;;;;;5060525;28;20047;-74
2024/01/13 10:24:31;;;;;;;252.45;232.82;;;3.10;99.90;;;;;;5090394;28;20441;-75
2024/01/13 10:26:57;;;;;;;206.93;191.65;;;3.10;99.90;;;;;;5098042;28;20121;-75
2024/01/13 10:29:23;;;;;;;172.87;160.63;;;3.10;99.90;;;;;;5095948;28;20086;-76
2024/01/13 10:31:53;;;;;;;212.40;197.30;;;3.20;99.90;;;;;;5067965;28;20044;-76
2024/01/13 10:34:19;;;;;;;232.65;215.77;;;3.20;99.90;;;;;;5072660;28;20055;-75
2024/01/13 10:36:45;;;;;;;193.13;179.25;;;3.20;99.90;;;;;;5078844;28;20147;-75
2024/01/13 10:39:11;;;;;;;200.53;186.33;;;3.20;99.90;;;;;;5057600;28;20048;-75
2024/01/13 10:41:41;;;;;;;210.60;195.80;;;3.30;99.90;;;;;;5072716;28;20035;-75
2024/01/13 10:44:09;;;;;;;201.07;187.65;;;3.30;99.90;;;;;;5079180;28;20410;-75
2024/01/13 10:46:42;;;;;;;263.20;245.52;;;3.40;99.90;;;;;;5081040;28;20039;-75
2024/01/13 10:49:15;;;;;;;311.05;289.77;;;3.40;99.90;;;;;;5054650;28;20032;-75
2024/01/13 10:51:50;;;;;;;192.48;178.98;;;3.40;99.90;;;;;;5071902;28;20045;-74
2024/01/13 10:54:18;;;;;;;230.85;215.27;;;3.50;99.90;;;;;;5086350;28;20098;-75
2024/01/13 10:56:44;;;;;;;188.60;175.95;;;3.60;99.90;;;;;;5079224;28;20062;-75
2024/01/13 10:59:10;;;;;;;251.93;235.40;;;3.60;99.90;;;;;;5080799;28;20035;-75
2024/01/13 11:01:38;;;;;;;210.40;196.57;;;3.70;99.90;;;;;;5079134;28;20032;-75
2024/01/13 11:04:04;;;;;;;269.00;251.15;;;3.70;99.90;;;;;;5061423;28;20043;-75
2024/01/13 11:06:30;;;;;;;222.57;207.93;;;3.80;99.90;;;;;;5080947;28;20121;-75
2024/01/13 11:08:56;;;;;;;246.30;230.35;;;3.80;99.90;;;;;;5075275;28;20130;-75
2024/01/13 11:11:28;;;;;;;206.75;193.18;;;3.80;99.90;;;;;;5074115;28;20520;-74
2024/01/13 11:14:23;;;;;;;208.68;195.32;;;3.90;99.90;;;;;;5062127;28;20056;-74
2024/01/13 11:16:51;;;;;;;248.93;232.90;;;3.90;99.90;;;;;;5049796;28;20044;-75
2024/01/13 11:19:16;;;;;;;232.35;217.90;;;4.00;99.90;;;;;;5067573;28;20036;-75
2024/01/13 11:21:48;;;;;;;289.43;270.23;;;4.10;99.90;;;;;;5076989;28;20093;-75
2024/01/13 11:24:15;;;;;;;258.75;242.15;;;4.10;99.90;;;;;;5079816;28;20041;-74
2024/01/13 11:26:48;;;;;;;314.90;293.73;;;4.10;99.90;;;;;;5054083;28;20040;-75
2024/01/13 11:29:25;;;;;;;238.20;222.95;;;4.10;99.90;;;;;;5070392;28;20044;-75
2024/01/13 11:32:08;;;;;;;295.48;274.77;;;4.10;99.90;;;;;;5053072;28;20066;-75
2024/01/13 11:34:34;;;;;;;240.27;224.45;;;4.10;99.90;;;;;;5069999;28;20061;-75
2024/01/13 11:37:00;;;;;;;305.37;284.77;;;4.20;99.90;;;;;;5070367;28;20169;-75
2024/01/13 11:39:26;;;;;;;297.63;276.73;;;4.20;99.90;;;;;;5076721;28;20048;-75
2024/01/13 11:41:56;;;;;;;307.75;286.52;;;4.20;99.90;;;;;;5068914;28;20033;-76
2024/01/13 11:44:23;;;;;;;325.50;302.55;;;4.20;99.90;;;;;;5053229;28;20525;-75
2024/01/13 11:47:07;;;;;;;251.88;235.63;;;4.20;99.90;;;;;;5072136;28;20626;-75
2024/01/13 11:49:37;;;;;;;279.38;260.35;;;4.20;99.90;;;;;;5076632;28;20044;-75
2024/01/13 11:52:07;;;;;;;299.60;280.95;;;4.20;99.90;;;;;;5075634;28;20039;-75
2024/01/13 11:54:37;;;;;;;329.08;306.27;;;4.20;99.90;;;;;;5072552;28;20048;-75
2024/01/13 11:57:10;;;;;;;277.27;259.38;;;4.30;99.90;;;;;;5079925;28;20040;-75
2024/01/13 11:59:36;;;;;;;264.10;247.07;;;4.30;99.90;;;;;;5082471;28;20047;-75
2024/01/13 12:02:02;;;;;;;271.70;254.13;;;4.30;99.90;;;;;;5086849;28;20032;-75
2024/01/13 12:04:30;;;;;;;344.48;320.17;;;4.20;99.90;;;;;;5086856;28;20039;-75
2024/01/13 12:06:56;;;;;;;281.38;261.38;;;4.20;99.90;;;;;;5066455;28;20037;-75
2024/01/13 12:09:27;;;;;;;351.58;326.90;;;4.20;99.90;;;;;;5074522;28;20036;-75
2024/01/13 12:11:57;;;;;;;331.77;309.42;;;4.20;99.90;;;;;;5052716;28;20044;-76
2024/01/13 12:14:28;;;;;;;286.98;269.70;;;4.20;99.90;;;;;;5069332;28;20052;-76
2024/01/13 12:16:58;;;;;;;259.35;243.20;;;4.20;99.90;;;;;;5068852;28;20036;-77